sensor_id;sensor_type;location;lat;lon;timestamp;P1;durP1;ratioP1;P2;durP2;ratioP2
12052;SDS011;6087;48.982;12.064;2022-09-16T00:00:21;10.68;;;8.98;;
12052;SDS011;6087;48.982;12.064;2022-09-16T00:02:53;10.65;;;9.27;;
12052;SDS011;6087;48.982;12.064;2022-09-16T00:05:21;12.23;;;10.43;;
12052;SDS011;6087;48.982;12.064;2022-09-16T00:07:48;12.40;;;10.05;;
12052;SDS011;6087;48.982;12.064;2022-09-16T00:10:15;14.02;;;11.10;;
12052;SDS011;6087;48.982;12.064;2022-09-16T00:12:42;11.50;;;10.30;;
12052;SDS011;6087;48.982;12.064;2022-09-16T00:15:09;12.15;;;9.80;;
12052;SDS011;6087;48.982;12.064;2022-09-16T00:17:38;12.68;;;11.18;;
12052;SDS011;6087;48.982;12.064;2022-09-16T00:20:05;12.25;;;10.15;;
12052;SDS011;6087;48.982;12.064;2022-09-16T00:22:33;12.80;;;10.40;;
12052;SDS011;6087;48.982;12.064;2022-09-16T00:25:00;12.00;;;10.70;;
12052;SDS011;6087;48.982;12.064;2022-09-16T00:27:27;11.85;;;10.65;;
12052;SDS011;6087;48.982;12.064;2022-09-16T00:29:54;15.07;;;10.82;;
12052;SDS011;6087;48.982;12.064;2022-09-16T00:32:21;12.75;;;11.43;;
12052;SDS011;6087;48.982;12.064;2022-09-16T00:34:49;16.05;;;10.77;;
12052;SDS011;6087;48.982;12.064;2022-09-16T00:37:16;14.88;;;11.50;;
12052;SDS011;6087;48.982;12.064;2022-09-16T00:39:46;14.75;;;9.82;;
12052;SDS011;6087;48.982;12.064;2022-09-16T00:42:13;14.90;;;11.23;;
12052;SDS011;6087;48.982;12.064;2022-09-16T00:44:52;13.52;;;11.52;;
12052;SDS011;6087;48.982;12.064;2022-09-16T00:47:22;13.20;;;11.45;;
12052;SDS011;6087;48.982;12.064;2022-09-16T00:49:55;13.43;;;11.40;;
12052;SDS011;6087;48.982;12.064;2022-09-16T00:52:26;12.45;;;11.18;;
12052;SDS011;6087;48.982;12.064;2022-09-16T00:54:56;15.57;;;12.55;;
12052;SDS011;6087;48.982;12.064;2022-09-16T00:57:24;14.38;;;12.13;;
12052;SDS011;6087;48.982;12.064;2022-09-16T00:59:52;14.00;;;12.48;;
12052;SDS011;6087;48.982;12.064;2022-09-16T01:02:20;16.27;;;13.23;;
12052;SDS011;6087;48.982;12.064;2022-09-16T01:04:49;16.02;;;13.85;;
12052;SDS011;6087;48.982;12.064;2022-09-16T01:07:22;17.92;;;12.82;;
12052;SDS011;6087;48.982;12.064;2022-09-16T01:09:54;18.50;;;13.77;;
12052;SDS011;6087;48.982;12.064;2022-09-16T01:12:21;16.90;;;13.73;;
12052;SDS011;6087;48.982;12.064;2022-09-16T01:14:48;18.02;;;13.35;;
12052;SDS011;6087;48.982;12.064;2022-09-16T01:17:20;19.10;;;14.07;;
12052;SDS011;6087;48.982;12.064;2022-09-16T01:20:14;15.27;;;13.35;;
12052;SDS011;6087;48.982;12.064;2022-09-16T01:23:15;18.40;;;14.52;;
12052;SDS011;6087;48.982;12.064;2022-09-16T01:26:07;18.23;;;13.38;;
12052;SDS011;6087;48.982;12.064;2022-09-16T01:31:50;15.90;;;12.85;;
12052;SDS011;6087;48.982;12.064;2022-09-16T01:34:24;15.85;;;12.52;;
12052;SDS011;6087;48.982;12.064;2022-09-16T01:37:00;14.40;;;12.75;;
12052;SDS011;6087;48.982;12.064;2022-09-16T01:39:35;14.80;;;11.65;;
12052;SDS011;6087;48.982;12.064;2022-09-16T01:42:14;16.27;;;12.27;;
12052;SDS011;6087;48.982;12.064;2022-09-16T01:44:49;13.80;;;12.05;;
12052;SDS011;6087;48.982;12.064;2022-09-16T01:47:27;14.70;;;12.32;;
12052;SDS011;6087;48.982;12.064;2022-09-16T01:50:04;15.88;;;12.65;;
12052;SDS011;6087;48.982;12.064;2022-09-16T01:52:40;15.88;;;13.23;;
12052;SDS011;6087;48.982;12.064;2022-09-16T01:55:13;18.10;;;14.15;;
12052;SDS011;6087;48.982;12.064;2022-09-16T01:57:47;17.45;;;14.23;;
12052;SDS011;6087;48.982;12.064;2022-09-16T02:00:18;17.45;;;13.82;;
12052;SDS011;6087;48.982;12.064;2022-09-16T02:02:47;17.10;;;13.38;;
12052;SDS011;6087;48.982;12.064;2022-09-16T02:05:24;14.95;;;13.23;;
12052;SDS011;6087;48.982;12.064;2022-09-16T02:07:55;18.08;;;13.68;;
12052;SDS011;6087;48.982;12.064;2022-09-16T02:10:26;18.48;;;14.32;;
12052;SDS011;6087;48.982;12.064;2022-09-16T02:12:57;16.40;;;12.85;;
12052;SDS011;6087;48.982;12.064;2022-09-16T02:15:29;17.13;;;13.07;;
12052;SDS011;6087;48.982;12.064;2022-09-16T02:18:06;16.77;;;13.30;;
12052;SDS011;6087;48.982;12.064;2022-09-16T02:20:38;15.55;;;13.57;;
12052;SDS011;6087;48.982;12.064;2022-09-16T02:23:10;15.88;;;13.32;;
12052;SDS011;6087;48.982;12.064;2022-09-16T02:25:41;17.38;;;13.70;;
12052;SDS011;6087;48.982;12.064;2022-09-16T02:28:12;18.65;;;13.93;;
12052;SDS011;6087;48.982;12.064;2022-09-16T02:30:43;14.55;;;12.63;;
12052;SDS011;6087;48.982;12.064;2022-09-16T02:33:16;17.17;;;13.25;;
12052;SDS011;6087;48.982;12.064;2022-09-16T02:35:44;16.42;;;13.15;;
12052;SDS011;6087;48.982;12.064;2022-09-16T02:38:15;17.55;;;13.57;;
12052;SDS011;6087;48.982;12.064;2022-09-16T02:40:45;16.15;;;12.98;;
12052;SDS011;6087;48.982;12.064;2022-09-16T02:43:16;17.15;;;13.50;;
12052;SDS011;6087;48.982;12.064;2022-09-16T02:45:44;17.45;;;12.60;;
12052;SDS011;6087;48.982;12.064;2022-09-16T02:48:19;16.58;;;12.73;;
12052;SDS011;6087;48.982;12.064;2022-09-16T02:50:56;16.13;;;12.63;;
12052;SDS011;6087;48.982;12.064;2022-09-16T02:53:32;16.27;;;13.45;;
12052;SDS011;6087;48.982;12.064;2022-09-16T02:56:08;15.18;;;12.45;;
12052;SDS011;6087;48.982;12.064;2022-09-16T02:58:39;18.00;;;13.15;;
12052;SDS011;6087;48.982;12.064;2022-09-16T03:01:06;16.38;;;13.15;;
12052;SDS011;6087;48.982;12.064;2022-09-16T03:03:34;21.65;;;14.38;;
12052;SDS011;6087;48.982;12.064;2022-09-16T03:06:18;15.50;;;13.05;;
12052;SDS011;6087;48.982;12.064;2022-09-16T03:08:47;16.17;;;12.95;;
12052;SDS011;6087;48.982;12.064;2022-09-16T03:11:19;20.17;;;14.00;;
12052;SDS011;6087;48.982;12.064;2022-09-16T03:14:02;17.17;;;13.68;;
12052;SDS011;6087;48.982;12.064;2022-09-16T03:16:40;18.27;;;13.80;;
12052;SDS011;6087;48.982;12.064;2022-09-16T03:19:17;16.27;;;13.25;;
12052;SDS011;6087;48.982;12.064;2022-09-16T03:21:52;16.50;;;12.85;;
12052;SDS011;6087;48.982;12.064;2022-09-16T03:24:24;16.38;;;13.00;;
12052;SDS011;6087;48.982;12.064;2022-09-16T03:26:58;17.02;;;13.60;;
12052;SDS011;6087;48.982;12.064;2022-09-16T03:29:31;18.75;;;13.93;;
12052;SDS011;6087;48.982;12.064;2022-09-16T03:32:04;17.77;;;12.40;;
12052;SDS011;6087;48.982;12.064;2022-09-16T03:34:41;18.75;;;13.75;;
12052;SDS011;6087;48.982;12.064;2022-09-16T03:37:13;19.50;;;13.77;;
12052;SDS011;6087;48.982;12.064;2022-09-16T03:39:46;16.35;;;12.88;;
12052;SDS011;6087;48.982;12.064;2022-09-16T03:42:18;17.02;;;13.93;;
12052;SDS011;6087;48.982;12.064;2022-09-16T03:44:46;17.63;;;14.35;;
12052;SDS011;6087;48.982;12.064;2022-09-16T03:47:15;17.35;;;13.95;;
12052;SDS011;6087;48.982;12.064;2022-09-16T03:49:43;18.77;;;13.63;;
12052;SDS011;6087;48.982;12.064;2022-09-16T03:52:10;18.30;;;14.20;;
12052;SDS011;6087;48.982;12.064;2022-09-16T03:54:37;21.92;;;15.18;;
12052;SDS011;6087;48.982;12.064;2022-09-16T03:57:05;17.45;;;12.73;;
12052;SDS011;6087;48.982;12.064;2022-09-16T03:59:32;18.92;;;13.65;;
12052;SDS011;6087;48.982;12.064;2022-09-16T04:01:59;17.92;;;13.68;;
12052;SDS011;6087;48.982;12.064;2022-09-16T04:04:26;17.38;;;12.57;;
12052;SDS011;6087;48.982;12.064;2022-09-16T04:06:54;16.38;;;13.27;;
12052;SDS011;6087;48.982;12.064;2022-09-16T04:09:21;20.67;;;14.38;;
12052;SDS011;6087;48.982;12.064;2022-09-16T04:11:48;19.25;;;14.40;;
12052;SDS011;6087;48.982;12.064;2022-09-16T04:14:15;17.45;;;13.05;;
12052;SDS011;6087;48.982;12.064;2022-09-16T04:16:42;15.73;;;12.93;;
12052;SDS011;6087;48.982;12.064;2022-09-16T04:19:09;17.08;;;13.05;;
12052;SDS011;6087;48.982;12.064;2022-09-16T04:21:37;16.48;;;13.85;;
12052;SDS011;6087;48.982;12.064;2022-09-16T04:24:06;16.73;;;12.48;;
12052;SDS011;6087;48.982;12.064;2022-09-16T04:26:33;14.25;;;12.68;;
12052;SDS011;6087;48.982;12.064;2022-09-16T04:29:00;18.15;;;12.73;;
12052;SDS011;6087;48.982;12.064;2022-09-16T04:31:27;16.65;;;12.23;;
12052;SDS011;6087;48.982;12.064;2022-09-16T04:33:54;12.70;;;11.18;;
12052;SDS011;6087;48.982;12.064;2022-09-16T04:36:21;17.95;;;11.80;;
12052;SDS011;6087;48.982;12.064;2022-09-16T04:38:48;14.25;;;11.70;;
12052;SDS011;6087;48.982;12.064;2022-09-16T04:41:17;16.20;;;11.50;;
12052;SDS011;6087;48.982;12.064;2022-09-16T04:43:45;15.00;;;11.27;;
12052;SDS011;6087;48.982;12.064;2022-09-16T04:46:16;14.82;;;11.32;;
12052;SDS011;6087;48.982;12.064;2022-09-16T04:48:45;15.95;;;11.90;;
12052;SDS011;6087;48.982;12.064;2022-09-16T04:51:13;16.67;;;12.88;;
12052;SDS011;6087;48.982;12.064;2022-09-16T04:53:40;15.32;;;11.77;;
12052;SDS011;6087;48.982;12.064;2022-09-16T04:56:10;13.57;;;11.65;;
12052;SDS011;6087;48.982;12.064;2022-09-16T04:58:41;15.35;;;12.55;;
12052;SDS011;6087;48.982;12.064;2022-09-16T05:01:10;15.07;;;11.43;;
12052;SDS011;6087;48.982;12.064;2022-09-16T05:03:38;15.55;;;11.82;;
12052;SDS011;6087;48.982;12.064;2022-09-16T05:06:07;14.98;;;12.30;;
12052;SDS011;6087;48.982;12.064;2022-09-16T05:08:35;15.50;;;11.90;;
12052;SDS011;6087;48.982;12.064;2022-09-16T05:11:03;13.20;;;10.73;;
12052;SDS011;6087;48.982;12.064;2022-09-16T05:13:31;15.30;;;11.73;;
12052;SDS011;6087;48.982;12.064;2022-09-16T05:16:03;15.18;;;11.18;;
12052;SDS011;6087;48.982;12.064;2022-09-16T05:18:32;16.60;;;11.68;;
12052;SDS011;6087;48.982;12.064;2022-09-16T05:21:00;14.75;;;11.15;;
12052;SDS011;6087;48.982;12.064;2022-09-16T05:23:29;16.42;;;11.95;;
12052;SDS011;6087;48.982;12.064;2022-09-16T05:26:00;16.27;;;11.68;;
12052;SDS011;6087;48.982;12.064;2022-09-16T05:28:28;14.57;;;11.90;;
12052;SDS011;6087;48.982;12.064;2022-09-16T05:31:07;15.73;;;12.25;;
12052;SDS011;6087;48.982;12.064;2022-09-16T05:33:35;16.73;;;12.23;;
12052;SDS011;6087;48.982;12.064;2022-09-16T05:36:03;17.85;;;14.52;;
12052;SDS011;6087;48.982;12.064;2022-09-16T05:38:30;20.25;;;14.35;;
12052;SDS011;6087;48.982;12.064;2022-09-16T05:40:58;20.42;;;14.80;;
12052;SDS011;6087;48.982;12.064;2022-09-16T05:43:25;16.63;;;13.60;;
12052;SDS011;6087;48.982;12.064;2022-09-16T05:45:52;18.95;;;14.63;;
12052;SDS011;6087;48.982;12.064;2022-09-16T05:48:22;18.52;;;14.85;;
12052;SDS011;6087;48.982;12.064;2022-09-16T05:50:50;16.73;;;13.48;;
12052;SDS011;6087;48.982;12.064;2022-09-16T05:53:17;18.30;;;14.05;;
12052;SDS011;6087;48.982;12.064;2022-09-16T05:55:55;19.60;;;14.15;;
12052;SDS011;6087;48.982;12.064;2022-09-16T05:58:22;19.60;;;15.65;;
12052;SDS011;6087;48.982;12.064;2022-09-16T06:00:50;20.05;;;14.25;;
12052;SDS011;6087;48.982;12.064;2022-09-16T06:03:17;20.70;;;15.35;;
12052;SDS011;6087;48.982;12.064;2022-09-16T06:05:45;19.70;;;15.30;;
12052;SDS011;6087;48.982;12.064;2022-09-16T06:08:12;20.90;;;14.52;;
12052;SDS011;6087;48.982;12.064;2022-09-16T06:10:41;20.80;;;13.88;;
12052;SDS011;6087;48.982;12.064;2022-09-16T06:13:08;17.80;;;14.02;;
12052;SDS011;6087;48.982;12.064;2022-09-16T06:15:38;17.83;;;14.50;;
12052;SDS011;6087;48.982;12.064;2022-09-16T06:18:13;18.17;;;14.60;;
12052;SDS011;6087;48.982;12.064;2022-09-16T06:20:40;16.58;;;13.02;;
12052;SDS011;6087;48.982;12.064;2022-09-16T06:23:08;17.95;;;12.73;;
12052;SDS011;6087;48.982;12.064;2022-09-16T06:25:36;15.52;;;12.75;;
12052;SDS011;6087;48.982;12.064;2022-09-16T06:28:03;18.08;;;11.68;;
12052;SDS011;6087;48.982;12.064;2022-09-16T06:30:30;19.40;;;12.68;;
12052;SDS011;6087;48.982;12.064;2022-09-16T06:32:57;17.00;;;12.35;;
12052;SDS011;6087;48.982;12.064;2022-09-16T06:35:24;15.60;;;13.07;;
12052;SDS011;6087;48.982;12.064;2022-09-16T06:37:54;16.52;;;12.88;;
12052;SDS011;6087;48.982;12.064;2022-09-16T06:40:23;16.20;;;12.63;;
12052;SDS011;6087;48.982;12.064;2022-09-16T06:42:51;16.27;;;12.50;;
12052;SDS011;6087;48.982;12.064;2022-09-16T06:45:18;15.82;;;11.27;;
12052;SDS011;6087;48.982;12.064;2022-09-16T06:47:45;15.70;;;12.32;;
12052;SDS011;6087;48.982;12.064;2022-09-16T06:50:13;17.63;;;11.80;;
12052;SDS011;6087;48.982;12.064;2022-09-16T06:52:40;11.90;;;10.20;;
12052;SDS011;6087;48.982;12.064;2022-09-16T06:55:07;14.23;;;11.82;;
12052;SDS011;6087;48.982;12.064;2022-09-16T06:57:36;13.20;;;10.15;;
12052;SDS011;6087;48.982;12.064;2022-09-16T07:00:06;14.43;;;10.65;;
12052;SDS011;6087;48.982;12.064;2022-09-16T07:02:34;12.82;;;9.20;;
12052;SDS011;6087;48.982;12.064;2022-09-16T07:05:02;12.73;;;9.75;;
12052;SDS011;6087;48.982;12.064;2022-09-16T07:07:29;10.43;;;9.32;;
12052;SDS011;6087;48.982;12.064;2022-09-16T07:09:58;18.15;;;10.27;;
12052;SDS011;6087;48.982;12.064;2022-09-16T07:12:25;11.77;;;9.82;;
12052;SDS011;6087;48.982;12.064;2022-09-16T07:14:55;16.35;;;10.18;;
12052;SDS011;6087;48.982;12.064;2022-09-16T07:17:28;15.52;;;8.95;;
12052;SDS011;6087;48.982;12.064;2022-09-16T07:20:01;11.77;;;9.27;;
12052;SDS011;6087;48.982;12.064;2022-09-16T07:22:29;11.02;;;8.65;;
12052;SDS011;6087;48.982;12.064;2022-09-16T07:24:56;11.88;;;8.85;;
12052;SDS011;6087;48.982;12.064;2022-09-16T07:27:26;12.35;;;9.90;;
12052;SDS011;6087;48.982;12.064;2022-09-16T07:29:56;13.27;;;9.60;;
12052;SDS011;6087;48.982;12.064;2022-09-16T07:32:23;11.43;;;8.95;;
12052;SDS011;6087;48.982;12.064;2022-09-16T07:34:50;13.05;;;9.20;;
12052;SDS011;6087;48.982;12.064;2022-09-16T07:37:18;11.10;;;8.88;;
12052;SDS011;6087;48.982;12.064;2022-09-16T07:39:46;10.23;;;7.93;;
12052;SDS011;6087;48.982;12.064;2022-09-16T07:42:14;9.38;;;8.38;;
12052;SDS011;6087;48.982;12.064;2022-09-16T07:44:41;11.15;;;8.15;;
12052;SDS011;6087;48.982;12.064;2022-09-16T07:47:09;12.10;;;7.15;;
12052;SDS011;6087;48.982;12.064;2022-09-16T07:49:36;9.70;;;6.75;;
12052;SDS011;6087;48.982;12.064;2022-09-16T07:52:03;9.85;;;6.72;;
12052;SDS011;6087;48.982;12.064;2022-09-16T07:54:35;7.95;;;6.55;;
12052;SDS011;6087;48.982;12.064;2022-09-16T07:57:02;9.57;;;6.32;;
12052;SDS011;6087;48.982;12.064;2022-09-16T07:59:32;8.05;;;5.60;;
12052;SDS011;6087;48.982;12.064;2022-09-16T08:01:59;8.18;;;5.93;;
12052;SDS011;6087;48.982;12.064;2022-09-16T08:04:28;7.07;;;5.90;;
12052;SDS011;6087;48.982;12.064;2022-09-16T08:06:55;5.85;;;5.25;;
12052;SDS011;6087;48.982;12.064;2022-09-16T08:09:22;8.23;;;5.88;;
12052;SDS011;6087;48.982;12.064;2022-09-16T08:11:49;7.35;;;5.78;;
12052;SDS011;6087;48.982;12.064;2022-09-16T08:14:17;9.02;;;5.15;;
12052;SDS011;6087;48.982;12.064;2022-09-16T08:16:47;7.38;;;5.45;;
12052;SDS011;6087;48.982;12.064;2022-09-16T08:19:15;5.47;;;4.80;;
12052;SDS011;6087;48.982;12.064;2022-09-16T08:21:44;6.68;;;4.30;;
12052;SDS011;6087;48.982;12.064;2022-09-16T08:24:12;6.35;;;4.72;;
12052;SDS011;6087;48.982;12.064;2022-09-16T08:26:40;6.03;;;4.05;;
12052;SDS011;6087;48.982;12.064;2022-09-16T08:29:07;5.90;;;3.80;;
12052;SDS011;6087;48.982;12.064;2022-09-16T08:31:34;5.13;;;3.40;;
12052;SDS011;6087;48.982;12.064;2022-09-16T08:34:02;6.10;;;3.60;;
12052;SDS011;6087;48.982;12.064;2022-09-16T08:36:29;3.80;;;2.95;;
12052;SDS011;6087;48.982;12.064;2022-09-16T08:38:58;3.80;;;3.22;;
12052;SDS011;6087;48.982;12.064;2022-09-16T08:41:33;4.72;;;3.35;;
12052;SDS011;6087;48.982;12.064;2022-09-16T08:44:10;3.20;;;2.90;;
12052;SDS011;6087;48.982;12.064;2022-09-16T08:46:43;3.88;;;2.90;;
12052;SDS011;6087;48.982;12.064;2022-09-16T08:49:16;4.63;;;2.65;;
12052;SDS011;6087;48.982;12.064;2022-09-16T08:51:51;5.60;;;2.70;;
12052;SDS011;6087;48.982;12.064;2022-09-16T08:54:23;3.95;;;2.60;;
12052;SDS011;6087;48.982;12.064;2022-09-16T08:56:54;3.42;;;2.42;;
12052;SDS011;6087;48.982;12.064;2022-09-16T08:59:34;2.30;;;1.88;;
12052;SDS011;6087;48.982;12.064;2022-09-16T09:02:35;5.07;;;2.30;;
12052;SDS011;6087;48.982;12.064;2022-09-16T09:05:12;4.53;;;2.10;;
12052;SDS011;6087;48.982;12.064;2022-09-16T09:07:49;4.95;;;2.03;;
12052;SDS011;6087;48.982;12.064;2022-09-16T09:10:37;2.13;;;2.00;;
12052;SDS011;6087;48.982;12.064;2022-09-16T09:13:12;3.35;;;2.08;;
12052;SDS011;6087;48.982;12.064;2022-09-16T09:15:58;4.43;;;2.15;;
12052;SDS011;6087;48.982;12.064;2022-09-16T09:18:37;2.72;;;2.03;;
12052;SDS011;6087;48.982;12.064;2022-09-16T09:21:13;2.88;;;1.95;;
12052;SDS011;6087;48.982;12.064;2022-09-16T09:23:51;2.60;;;1.80;;
12052;SDS011;6087;48.982;12.064;2022-09-16T09:26:42;4.10;;;2.05;;
12052;SDS011;6087;48.982;12.064;2022-09-16T09:29:21;3.40;;;1.77;;
12052;SDS011;6087;48.982;12.064;2022-09-16T09:32:06;2.78;;;1.70;;
12052;SDS011;6087;48.982;12.064;2022-09-16T09:41:07;4.85;;;2.45;;
12052;SDS011;6087;48.982;12.064;2022-09-16T09:43:40;2.85;;;1.80;;
12052;SDS011;6087;48.982;12.064;2022-09-16T09:46:23;2.30;;;1.77;;
12052;SDS011;6087;48.982;12.064;2022-09-16T09:48:56;1.80;;;1.70;;
12052;SDS011;6087;48.982;12.064;2022-09-16T09:51:31;2.15;;;1.80;;
12052;SDS011;6087;48.982;12.064;2022-09-16T09:54:14;3.35;;;1.83;;
12052;SDS011;6087;48.982;12.064;2022-09-16T09:57:06;6.78;;;2.15;;
12052;SDS011;6087;48.982;12.064;2022-09-16T10:02:31;3.15;;;1.85;;
12052;SDS011;6087;48.982;12.064;2022-09-16T10:05:01;5.95;;;2.45;;
12052;SDS011;6087;48.982;12.064;2022-09-16T10:07:28;6.00;;;2.42;;
12052;SDS011;6087;48.982;12.064;2022-09-16T10:09:58;3.22;;;2.40;;
12052;SDS011;6087;48.982;12.064;2022-09-16T10:12:32;2.40;;;1.73;;
12052;SDS011;6087;48.982;12.064;2022-09-16T10:15:16;3.10;;;1.40;;
12052;SDS011;6087;48.982;12.064;2022-09-16T10:17:51;6.35;;;1.98;;
12052;SDS011;6087;48.982;12.064;2022-09-16T10:20:28;2.78;;;1.50;;
12052;SDS011;6087;48.982;12.064;2022-09-16T10:22:59;2.15;;;1.65;;
12052;SDS011;6087;48.982;12.064;2022-09-16T10:26:01;3.65;;;1.50;;
12052;SDS011;6087;48.982;12.064;2022-09-16T10:28:54;1.42;;;1.23;;
12052;SDS011;6087;48.982;12.064;2022-09-16T10:31:33;3.67;;;1.45;;
12052;SDS011;6087;48.982;12.064;2022-09-16T10:34:02;1.63;;;1.52;;
12052;SDS011;6087;48.982;12.064;2022-09-16T10:36:38;5.22;;;1.77;;
12052;SDS011;6087;48.982;12.064;2022-09-16T10:39:31;2.47;;;1.65;;
12052;SDS011;6087;48.982;12.064;2022-09-16T10:42:17;2.88;;;1.30;;
12052;SDS011;6087;48.982;12.064;2022-09-16T10:44:53;1.63;;;1.30;;
12052;SDS011;6087;48.982;12.064;2022-09-16T10:47:36;1.58;;;1.48;;
12052;SDS011;6087;48.982;12.064;2022-09-16T10:50:14;1.75;;;1.40;;
12052;SDS011;6087;48.982;12.064;2022-09-16T10:52:44;4.40;;;1.77;;
12052;SDS011;6087;48.982;12.064;2022-09-16T10:55:25;2.95;;;1.73;;
12052;SDS011;6087;48.982;12.064;2022-09-16T10:58:04;1.67;;;1.30;;
12052;SDS011;6087;48.982;12.064;2022-09-16T11:00:46;2.40;;;1.63;;
12052;SDS011;6087;48.982;12.064;2022-09-16T11:03:50;2.88;;;1.80;;
12052;SDS011;6087;48.982;12.064;2022-09-16T11:06:52;2.28;;;1.50;;
12052;SDS011;6087;48.982;12.064;2022-09-16T11:09:31;2.03;;;1.38;;
12052;SDS011;6087;48.982;12.064;2022-09-16T11:12:25;2.08;;;1.73;;
12052;SDS011;6087;48.982;12.064;2022-09-16T11:15:05;2.50;;;1.48;;
12052;SDS011;6087;48.982;12.064;2022-09-16T11:18:10;1.83;;;1.67;;
12052;SDS011;6087;48.982;12.064;2022-09-16T11:20:51;2.65;;;1.63;;
12052;SDS011;6087;48.982;12.064;2022-09-16T11:23:33;4.07;;;2.00;;
12052;SDS011;6087;48.982;12.064;2022-09-16T11:26:10;2.35;;;1.58;;
12052;SDS011;6087;48.982;12.064;2022-09-16T11:28:48;2.80;;;1.90;;
12052;SDS011;6087;48.982;12.064;2022-09-16T11:31:39;3.45;;;1.75;;
12052;SDS011;6087;48.982;12.064;2022-09-16T11:34:14;4.97;;;2.78;;
12052;SDS011;6087;48.982;12.064;2022-09-16T11:37:11;1.92;;;1.52;;
12052;SDS011;6087;48.982;12.064;2022-09-16T11:39:48;3.45;;;1.90;;
12052;SDS011;6087;48.982;12.064;2022-09-16T11:42:29;2.20;;;2.00;;
12052;SDS011;6087;48.982;12.064;2022-09-16T11:45:04;2.00;;;1.77;;
12052;SDS011;6087;48.982;12.064;2022-09-16T11:47:42;2.50;;;2.20;;
12052;SDS011;6087;48.982;12.064;2022-09-16T11:50:32;3.78;;;1.50;;
12052;SDS011;6087;48.982;12.064;2022-09-16T11:56:24;3.30;;;1.63;;
12052;SDS011;6087;48.982;12.064;2022-09-16T11:59:09;3.28;;;1.40;;
12052;SDS011;6087;48.982;12.064;2022-09-16T12:01:45;3.03;;;1.65;;
12052;SDS011;6087;48.982;12.064;2022-09-16T12:04:20;3.05;;;1.80;;
12052;SDS011;6087;48.982;12.064;2022-09-16T12:06:57;4.53;;;1.88;;
12052;SDS011;6087;48.982;12.064;2022-09-16T12:09:49;3.30;;;1.70;;
12052;SDS011;6087;48.982;12.064;2022-09-16T12:12:20;3.40;;;1.80;;
12052;SDS011;6087;48.982;12.064;2022-09-16T12:14:50;3.60;;;1.80;;
12052;SDS011;6087;48.982;12.064;2022-09-16T12:17:22;4.18;;;1.92;;
12052;SDS011;6087;48.982;12.064;2022-09-16T12:19:54;3.45;;;1.60;;
12052;SDS011;6087;48.982;12.064;2022-09-16T12:22:25;2.53;;;1.50;;
12052;SDS011;6087;48.982;12.064;2022-09-16T12:24:59;3.03;;;1.95;;
12052;SDS011;6087;48.982;12.064;2022-09-16T12:27:37;3.63;;;1.63;;
12052;SDS011;6087;48.982;12.064;2022-09-16T12:30:16;2.40;;;1.60;;
12052;SDS011;6087;48.982;12.064;2022-09-16T12:32:50;6.13;;;1.58;;
12052;SDS011;6087;48.982;12.064;2022-09-16T12:35:25;1.52;;;1.42;;
12052;SDS011;6087;48.982;12.064;2022-09-16T12:37:59;2.08;;;1.25;;
12052;SDS011;6087;48.982;12.064;2022-09-16T12:40:47;4.32;;;1.77;;
12052;SDS011;6087;48.982;12.064;2022-09-16T12:46:44;2.78;;;1.67;;
12052;SDS011;6087;48.982;12.064;2022-09-16T12:49:42;2.45;;;1.60;;
12052;SDS011;6087;48.982;12.064;2022-09-16T12:52:40;1.92;;;1.73;;
12052;SDS011;6087;48.982;12.064;2022-09-16T12:58:18;4.30;;;2.00;;
12052;SDS011;6087;48.982;12.064;2022-09-16T13:00:57;2.35;;;1.92;;
12052;SDS011;6087;48.982;12.064;2022-09-16T13:03:32;3.78;;;1.77;;
12052;SDS011;6087;48.982;12.064;2022-09-16T13:06:13;2.13;;;1.75;;
12052;SDS011;6087;48.982;12.064;2022-09-16T13:08:47;4.40;;;2.10;;
12052;SDS011;6087;48.982;12.064;2022-09-16T13:11:21;2.63;;;1.92;;
12052;SDS011;6087;48.982;12.064;2022-09-16T13:13:51;4.55;;;2.72;;
12052;SDS011;6087;48.982;12.064;2022-09-16T13:16:26;2.70;;;1.40;;
12052;SDS011;6087;48.982;12.064;2022-09-16T13:19:09;2.33;;;1.15;;
12052;SDS011;6087;48.982;12.064;2022-09-16T13:21:53;2.75;;;1.52;;
12052;SDS011;6087;48.982;12.064;2022-09-16T13:24:26;2.90;;;1.63;;
12052;SDS011;6087;48.982;12.064;2022-09-16T13:26:58;2.63;;;1.80;;
12052;SDS011;6087;48.982;12.064;2022-09-16T13:29:37;3.33;;;1.77;;
12052;SDS011;6087;48.982;12.064;2022-09-16T13:35:01;2.15;;;1.65;;
12052;SDS011;6087;48.982;12.064;2022-09-16T13:37:29;1.92;;;1.27;;
12052;SDS011;6087;48.982;12.064;2022-09-16T13:40:06;3.10;;;2.13;;
12052;SDS011;6087;48.982;12.064;2022-09-16T13:42:36;1.80;;;1.70;;
12052;SDS011;6087;48.982;12.064;2022-09-16T13:45:17;3.03;;;2.08;;
12052;SDS011;6087;48.982;12.064;2022-09-16T13:47:58;4.30;;;2.08;;
12052;SDS011;6087;48.982;12.064;2022-09-16T13:50:27;3.92;;;2.00;;
12052;SDS011;6087;48.982;12.064;2022-09-16T13:52:55;2.55;;;1.85;;
12052;SDS011;6087;48.982;12.064;2022-09-16T13:55:23;2.20;;;2.00;;
12052;SDS011;6087;48.982;12.064;2022-09-16T13:58:00;2.05;;;1.83;;
12052;SDS011;6087;48.982;12.064;2022-09-16T14:00:35;2.13;;;1.63;;
12052;SDS011;6087;48.982;12.064;2022-09-16T14:09:18;1.38;;;1.27;;
12052;SDS011;6087;48.982;12.064;2022-09-16T14:12:02;2.97;;;1.90;;
12052;SDS011;6087;48.982;12.064;2022-09-16T14:14:38;3.10;;;1.83;;
12052;SDS011;6087;48.982;12.064;2022-09-16T14:17:13;1.90;;;1.80;;
12052;SDS011;6087;48.982;12.064;2022-09-16T14:19:43;2.03;;;1.70;;
12052;SDS011;6087;48.982;12.064;2022-09-16T14:22:20;2.20;;;1.90;;
12052;SDS011;6087;48.982;12.064;2022-09-16T14:24:51;3.90;;;2.70;;
12052;SDS011;6087;48.982;12.064;2022-09-16T14:27:42;2.92;;;2.17;;
12052;SDS011;6087;48.982;12.064;2022-09-16T14:32:56;2.33;;;1.70;;
12052;SDS011;6087;48.982;12.064;2022-09-16T14:35:25;3.72;;;1.67;;
12052;SDS011;6087;48.982;12.064;2022-09-16T14:38:04;2.65;;;1.95;;
12052;SDS011;6087;48.982;12.064;2022-09-16T14:40:37;1.92;;;1.63;;
12052;SDS011;6087;48.982;12.064;2022-09-16T14:43:22;2.67;;;2.10;;
12052;SDS011;6087;48.982;12.064;2022-09-16T14:46:09;1.58;;;1.48;;
12052;SDS011;6087;48.982;12.064;2022-09-16T14:48:42;2.35;;;1.85;;
12052;SDS011;6087;48.982;12.064;2022-09-16T14:51:37;2.17;;;1.60;;
12052;SDS011;6087;48.982;12.064;2022-09-16T14:54:17;2.72;;;1.88;;
12052;SDS011;6087;48.982;12.064;2022-09-16T14:57:01;4.38;;;1.83;;
12052;SDS011;6087;48.982;12.064;2022-09-16T14:59:32;4.82;;;2.10;;
12052;SDS011;6087;48.982;12.064;2022-09-16T15:02:10;6.25;;;2.03;;
12052;SDS011;6087;48.982;12.064;2022-09-16T15:04:42;3.42;;;1.55;;
12052;SDS011;6087;48.982;12.064;2022-09-16T15:07:13;2.60;;;1.80;;
12052;SDS011;6087;48.982;12.064;2022-09-16T15:09:45;5.70;;;2.10;;
12052;SDS011;6087;48.982;12.064;2022-09-16T15:12:20;2.80;;;1.92;;
12052;SDS011;6087;48.982;12.064;2022-09-16T15:14:55;2.75;;;1.85;;
12052;SDS011;6087;48.982;12.064;2022-09-16T15:17:46;3.92;;;2.08;;
12052;SDS011;6087;48.982;12.064;2022-09-16T15:20:48;3.20;;;1.80;;
12052;SDS011;6087;48.982;12.064;2022-09-16T15:23:22;2.53;;;1.70;;
12052;SDS011;6087;48.982;12.064;2022-09-16T15:26:08;1.95;;;1.73;;
12052;SDS011;6087;48.982;12.064;2022-09-16T15:29:24;3.00;;;1.90;;
12052;SDS011;6087;48.982;12.064;2022-09-16T15:32:41;2.60;;;1.70;;
12052;SDS011;6087;48.982;12.064;2022-09-16T15:35:48;2.20;;;1.70;;
12052;SDS011;6087;48.982;12.064;2022-09-16T15:38:54;6.05;;;2.40;;
12052;SDS011;6087;48.982;12.064;2022-09-16T15:41:27;1.80;;;1.70;;
12052;SDS011;6087;48.982;12.064;2022-09-16T15:43:55;3.13;;;2.03;;
12052;SDS011;6087;48.982;12.064;2022-09-16T15:46:25;2.55;;;1.70;;
12052;SDS011;6087;48.982;12.064;2022-09-16T15:48:56;3.75;;;1.83;;